createdAt,value
2018-07-27T00:01:33.330Z,82.40
2018-07-27T00:04:02.233Z,83.00
2018-07-27T00:06:30.448Z,83.40
2018-07-27T00:08:58.695Z,83.60
2018-07-27T00:11:27.246Z,83.90
2018-07-27T00:13:55.486Z,84.20
2018-07-27T00:16:23.732Z,84.50
2018-07-27T00:18:52.272Z,84.60
2018-07-27T00:21:20.834Z,84.80
2018-07-27T00:23:49.062Z,85.10
2018-07-27T00:26:17.313Z,85.60
2018-07-27T00:28:45.526Z,86.10
2018-07-27T00:31:14.097Z,86.30
2018-07-27T00:33:42.657Z,86.60
2018-07-27T00:36:10.897Z,86.80
2018-07-27T00:38:39.437Z,87.30
2018-07-27T00:41:07.680Z,88.30
2018-07-27T00:43:35.890Z,87.90
2018-07-27T00:46:04.473Z,88.70
2018-07-27T00:48:32.730Z,89.30
2018-07-27T00:51:01.311Z,89.80
2018-07-27T00:53:29.870Z,90.00
2018-07-27T00:55:58.197Z,90.20
2018-07-27T00:58:26.409Z,90.20
2018-07-27T01:00:54.645Z,90.40
2018-07-27T01:03:22.863Z,90.50
2018-07-27T01:05:51.798Z,90.60
2018-07-27T01:08:20.044Z,90.80
2018-07-27T01:10:48.298Z,91.10
2018-07-27T01:13:16.854Z,91.30
2018-07-27T01:15:45.409Z,91.40
2018-07-27T01:18:13.997Z,91.50
2018-07-27T01:20:42.750Z,91.40
2018-07-27T01:23:10.983Z,91.50
2018-07-27T01:25:39.511Z,91.50
2018-07-27T01:28:08.095Z,91.50
2018-07-27T01:30:36.712Z,91.50
2018-07-27T01:33:05.622Z,91.60
2018-07-27T01:35:33.849Z,91.60
2018-07-27T01:38:02.336Z,91.50
2018-07-27T01:40:31.148Z,91.50
2018-07-27T01:42:59.365Z,91.40
2018-07-27T01:45:27.630Z,91.50
2018-07-27T01:47:56.831Z,91.50
2018-07-27T01:50:25.049Z,91.60
2018-07-27T01:52:53.264Z,91.70
2018-07-27T01:55:21.843Z,91.80
2018-07-27T01:57:50.408Z,91.90
2018-07-27T02:00:18.621Z,92.10
2018-07-27T02:02:46.873Z,92.20
2018-07-27T02:05:15.480Z,92.20
2018-07-27T02:07:43.740Z,92.30
2018-07-27T02:10:12.304Z,92.40
2018-07-27T02:12:40.533Z,92.60
2018-07-27T02:15:09.947Z,92.80
2018-07-27T02:17:39.264Z,93.00
2018-07-27T02:20:07.492Z,93.30
2018-07-27T02:22:36.533Z,93.50
2018-07-27T02:25:04.913Z,93.50
2018-07-27T02:27:33.493Z,93.80
2018-07-27T02:30:02.050Z,94.20
2018-07-27T02:32:30.624Z,94.50
2018-07-27T02:34:58.856Z,94.70
2018-07-27T02:37:27.422Z,94.90
2018-07-27T02:39:55.696Z,95.10
2018-07-27T02:42:23.966Z,95.30
2018-07-27T02:44:52.172Z,95.50
2018-07-27T02:47:20.745Z,95.60
2018-07-27T02:49:49.342Z,95.60
2018-07-27T02:52:18.525Z,95.80
2018-07-27T02:54:47.132Z,96.20
2018-07-27T02:57:15.661Z,96.40
2018-07-27T02:59:44.371Z,96.80
2018-07-27T03:02:12.583Z,96.80
2018-07-27T03:04:42.962Z,96.80
2018-07-27T03:07:11.515Z,96.90
2018-07-27T03:09:45.699Z,96.80
2018-07-27T03:12:14.695Z,96.90
2018-07-27T03:14:43.207Z,96.90
2018-07-27T03:17:11.711Z,96.90
2018-07-27T03:19:40.250Z,97.00
2018-07-27T03:22:08.831Z,97.00
2018-07-27T03:24:37.338Z,97.10
2018-07-27T03:27:05.838Z,96.90
2018-07-27T03:29:34.353Z,96.80
2018-07-27T03:32:03.177Z,96.90
2018-07-27T03:34:31.683Z,96.80
2018-07-27T03:37:00.201Z,96.70
2018-07-27T03:41:56.965Z,96.80
2018-07-27T03:44:25.794Z,96.80
2018-07-27T03:46:54.389Z,96.70
2018-07-27T03:49:22.873Z,96.70
2018-07-27T03:51:51.708Z,96.80
2018-07-27T03:54:20.561Z,96.90
2018-07-27T03:56:49.036Z,96.90
2018-07-27T03:59:17.592Z,96.80
2018-07-27T04:01:45.796Z,96.90
2018-07-27T04:06:42.633Z,96.90
2018-07-27T04:09:11.139Z,97.00
2018-07-27T04:11:40.286Z,97.10
2018-07-27T04:14:09.180Z,97.40
2018-07-27T04:16:38.351Z,97.40
2018-07-27T04:19:07.533Z,97.40
2018-07-27T04:21:36.413Z,97.50
2018-07-27T04:24:05.245Z,97.70
2018-07-27T04:26:33.725Z,97.80
2018-07-27T04:29:02.248Z,97.60
2018-07-27T04:31:31.097Z,97.90
2018-07-27T04:33:59.620Z,97.90
2018-07-27T04:36:28.494Z,98.30
2018-07-27T04:38:57.021Z,98.40
2018-07-27T04:41:25.872Z,98.30
2018-07-27T04:43:54.790Z,98.30
2018-07-27T04:46:23.638Z,98.10
2018-07-27T04:48:52.472Z,98.10
2018-07-27T04:51:21.310Z,98.00
2018-07-27T04:56:18.764Z,98.10
2018-07-27T04:58:47.610Z,98.10
2018-07-27T05:01:16.806Z,98.20
2018-07-27T05:03:45.968Z,98.30
2018-07-27T05:06:14.816Z,98.30
2018-07-27T05:08:49.088Z,98.50
2018-07-27T05:11:17.945Z,98.10
2018-07-27T05:13:46.465Z,98.20
2018-07-27T05:16:15.674Z,98.20
2018-07-27T05:18:44.802Z,98.20
2018-07-27T05:21:13.678Z,98.30
2018-07-27T05:23:42.204Z,98.30
2018-07-27T05:26:10.520Z,98.40
2018-07-27T05:28:39.694Z,98.30
2018-07-27T05:31:08.541Z,98.10
2018-07-27T05:33:36.785Z,98.00
2018-07-27T05:36:05.841Z,97.80
2018-07-27T05:38:35.021Z,98.10
2018-07-27T05:41:03.260Z,98.10
2018-07-27T05:43:32.207Z,98.30
2018-07-27T05:46:01.385Z,98.20
2018-07-27T05:48:29.644Z,98.50
2018-07-27T05:50:58.224Z,98.10
2018-07-27T05:53:26.810Z,98.10
2018-07-27T05:55:55.309Z,98.00
2018-07-27T05:58:23.869Z,98.10
2018-07-27T06:00:53.159Z,98.10
2018-07-27T06:03:21.982Z,98.30
2018-07-27T06:05:50.837Z,98.20
2018-07-27T06:08:19.419Z,98.10
2018-07-27T06:10:48.641Z,97.90
2018-07-27T06:13:17.624Z,98.00
2018-07-27T06:15:46.197Z,98.10
2018-07-27T06:18:14.853Z,98.00
2018-07-27T06:20:43.477Z,97.90
2018-07-27T06:23:11.981Z,97.90
2018-07-27T06:25:41.177Z,97.90
2018-07-27T06:28:10.203Z,98.00
2018-07-27T06:30:38.849Z,98.00
2018-07-27T06:33:07.694Z,97.80
2018-07-27T06:35:36.911Z,97.60
2018-07-27T06:38:05.415Z,97.40
2018-07-27T06:40:34.246Z,97.10
2018-07-27T06:43:03.021Z,96.90
2018-07-27T06:45:31.267Z,97.00
2018-07-27T06:47:59.816Z,96.90
2018-07-27T06:50:28.332Z,97.00
2018-07-27T06:52:56.822Z,97.10
2018-07-27T06:55:25.713Z,96.90
2018-07-27T06:57:54.418Z,97.10
2018-07-27T07:00:23.262Z,97.00
2018-07-27T07:05:20.107Z,96.90
2018-07-27T07:07:48.322Z,96.60
2018-07-27T07:10:16.546Z,96.40
2018-07-27T07:12:45.111Z,96.30
2018-07-27T07:15:13.362Z,95.60
2018-07-27T07:17:41.941Z,95.40
2018-07-27T07:20:10.459Z,95.30
2018-07-27T07:22:38.934Z,95.30
2018-07-27T07:25:07.255Z,95.10
2018-07-27T07:27:35.675Z,95.00
2018-07-27T07:30:03.977Z,94.60
2018-07-27T07:32:32.206Z,94.40
2018-07-27T07:35:01.202Z,94.20
2018-07-27T07:37:29.425Z,93.90
2018-07-27T07:39:57.983Z,93.50
2018-07-27T07:42:26.213Z,93.40
2018-07-27T07:44:54.485Z,93.20
2018-07-27T07:47:23.330Z,93.10
2018-07-27T07:51:16.037Z,92.90
2018-07-27T07:53:44.635Z,92.80
2018-07-27T07:56:13.188Z,92.30
2018-07-27T07:58:41.767Z,92.30
2018-07-27T08:01:10.482Z,92.10
2018-07-27T08:03:39.054Z,91.80
2018-07-27T08:06:07.621Z,91.70
2018-07-27T08:08:36.176Z,91.40
2018-07-27T08:11:04.778Z,91.40
2018-07-27T08:13:33.517Z,91.30
2018-07-27T08:16:02.076Z,91.10
2018-07-27T08:18:30.641Z,90.80
2018-07-27T08:20:59.346Z,90.60
2018-07-27T08:23:27.968Z,90.30
2018-07-27T08:27:02.246Z,90.00
2018-07-27T08:29:34.630Z,89.80
2018-07-27T08:32:03.264Z,89.10
2018-07-27T08:34:31.823Z,89.00
2018-07-27T08:37:00.380Z,88.00
2018-07-27T08:39:29.844Z,86.70
2018-07-27T08:41:58.397Z,86.70
2018-07-27T08:44:29.304Z,86.70
2018-07-27T08:46:57.539Z,85.60
2018-07-27T08:49:26.089Z,85.10
2018-07-27T08:51:54.309Z,84.60
2018-07-27T08:54:22.534Z,83.70
2018-07-27T08:56:51.498Z,82.30
2018-07-27T08:59:19.721Z,82.50
2018-07-27T09:01:48.608Z,82.40
2018-07-27T09:04:17.283Z,81.10
2018-07-27T09:06:45.508Z,80.00
2018-07-27T09:09:14.901Z,78.50
2018-07-27T09:11:43.115Z,76.00
2018-07-27T09:14:11.645Z,74.10
2018-07-27T09:16:39.859Z,74.50
2018-07-27T09:19:08.421Z,74.00
2018-07-27T09:21:36.958Z,73.40
2018-07-27T09:24:05.230Z,72.60
2018-07-27T09:26:33.828Z,71.10
2018-07-27T09:29:02.705Z,70.20
2018-07-27T09:31:31.336Z,70.90
2018-07-27T09:34:00.174Z,70.40
2018-07-27T09:36:29.067Z,69.80
2018-07-27T09:38:57.950Z,69.60
2018-07-27T09:41:26.766Z,69.80
2018-07-27T09:43:55.613Z,70.00
2018-07-27T09:46:24.197Z,69.60
2018-07-27T09:48:54.205Z,69.60
2018-07-27T09:51:24.580Z,69.70
2018-07-27T09:53:54.475Z,70.10
2018-07-27T09:56:23.200Z,70.50
2018-07-27T09:58:51.802Z,70.70
2018-07-27T10:01:25.514Z,71.10
2018-07-27T10:03:54.835Z,71.10
2018-07-27T10:06:23.888Z,71.20
2018-07-27T10:08:52.649Z,71.20
2018-07-27T10:11:21.717Z,71.10
2018-07-27T10:13:50.432Z,70.60
2018-07-27T10:16:19.153Z,69.70
2018-07-27T10:18:48.033Z,69.30
2018-07-27T10:21:16.977Z,68.40
2018-07-27T10:23:46.546Z,66.40
2018-07-27T10:26:14.769Z,65.40
2018-07-27T10:28:42.981Z,64.60
2018-07-27T10:31:11.564Z,64.20
2018-07-27T10:33:40.766Z,63.30
2018-07-27T10:36:09.562Z,62.90
2018-07-27T10:38:38.184Z,63.50
2018-07-27T10:41:07.014Z,64.00
2018-07-27T10:43:35.358Z,64.60
2018-07-27T10:46:04.261Z,64.50
2018-07-27T10:48:32.476Z,63.20
2018-07-27T10:51:01.364Z,63.80
2018-07-27T10:53:29.559Z,63.30
2018-07-27T10:55:58.112Z,63.50
2018-07-27T10:58:26.981Z,64.00
2018-07-27T11:00:55.210Z,64.70
2018-07-27T11:03:24.647Z,64.10
2018-07-27T11:05:53.149Z,64.10
2018-07-27T11:08:22.217Z,64.40
2018-07-27T11:10:50.432Z,64.50
2018-07-27T11:13:18.647Z,64.70
2018-07-27T11:15:46.882Z,64.80
2018-07-27T11:18:15.763Z,64.30
2018-07-27T11:20:44.224Z,64.20
2018-07-27T11:23:13.080Z,64.20
2018-07-27T11:25:42.018Z,64.30
2018-07-27T11:28:11.069Z,64.70
2018-07-27T11:30:39.316Z,65.40
2018-07-27T11:33:07.857Z,65.90
2018-07-27T11:35:36.097Z,66.10
2018-07-27T11:38:04.331Z,66.00
2018-07-27T11:40:32.912Z,65.70
2018-07-27T11:43:01.792Z,63.90
2018-07-27T11:45:30.344Z,63.40
2018-07-27T11:47:59.470Z,62.40
2018-07-27T11:50:28.024Z,61.90
2018-07-27T11:52:56.589Z,61.60
2018-07-27T11:57:53.700Z,60.20
2018-07-27T12:00:22.234Z,60.00
2018-07-27T12:02:50.978Z,59.90
2018-07-27T12:05:19.517Z,59.60
2018-07-27T12:07:48.085Z,59.40
2018-07-27T12:10:16.305Z,59.30
2018-07-27T12:12:44.858Z,59.60
2018-07-27T12:15:13.292Z,59.70
2018-07-27T12:17:41.505Z,59.60
2018-07-27T12:20:10.380Z,58.80
2018-07-27T12:22:39.540Z,59.70
2018-07-27T12:25:08.080Z,58.80
2018-07-27T12:27:36.570Z,59.00
2018-07-27T12:38:18.937Z,58.70
2018-07-27T12:40:47.152Z,58.60
2018-07-27T12:43:15.711Z,57.70
2018-07-27T12:45:43.944Z,57.30
2018-07-27T12:48:12.171Z,57.30
2018-07-27T12:50:40.712Z,56.70
2018-07-27T12:53:08.975Z,55.70
2018-07-27T12:55:38.230Z,55.50
2018-07-27T12:58:06.760Z,54.50
2018-07-27T13:00:34.965Z,53.30
2018-07-27T13:03:03.840Z,54.10
2018-07-27T13:05:32.502Z,55.00
2018-07-27T13:08:00.827Z,54.60
2018-07-27T13:10:29.044Z,54.70
2018-07-27T13:12:57.290Z,54.80
2018-07-27T13:15:25.553Z,55.30
2018-07-27T13:17:54.105Z,56.00
2018-07-27T13:20:22.377Z,56.00
2018-07-27T13:22:50.922Z,56.20
2018-07-27T13:25:19.122Z,56.70
2018-07-27T13:27:47.672Z,57.40
2018-07-27T13:30:16.229Z,57.30
2018-07-27T13:32:44.783Z,57.80
2018-07-27T13:40:11.038Z,59.00
2018-07-27T13:42:40.185Z,59.30
2018-07-27T13:47:36.755Z,59.70
2018-07-27T13:50:05.003Z,60.00
2018-07-27T13:52:33.569Z,60.00
2018-07-27T13:55:03.718Z,61.40
2018-07-27T13:57:32.315Z,61.30
2018-07-27T14:00:00.661Z,63.10
2018-07-27T14:02:28.877Z,64.70
2018-07-27T14:04:58.207Z,68.20
2018-07-27T14:07:26.765Z,69.40
2018-07-27T14:09:55.709Z,70.40
2018-07-27T14:12:24.298Z,70.90
2018-07-27T14:14:52.521Z,72.50
2018-07-27T14:17:20.750Z,71.40
2018-07-27T14:19:50.019Z,71.50
2018-07-27T14:22:20.902Z,73.70
2018-07-27T14:24:52.710Z,74.50
2018-07-27T14:27:21.578Z,74.20
2018-07-27T14:29:51.893Z,74.20
2018-07-27T14:32:20.701Z,73.80
2018-07-27T14:34:49.824Z,73.40
2018-07-27T14:37:18.374Z,70.80
2018-07-27T14:39:47.258Z,69.60
2018-07-27T14:42:15.481Z,68.80
2018-07-27T14:44:44.597Z,72.90
2018-07-27T14:47:13.612Z,73.10
2018-07-27T14:49:41.824Z,74.30
2018-07-27T14:52:10.654Z,73.90
2018-07-27T14:54:39.373Z,72.60
2018-07-27T14:57:08.764Z,73.70
2018-07-27T14:59:37.042Z,74.70
2018-07-27T15:02:05.383Z,73.50
2018-07-27T15:04:33.628Z,73.70
2018-07-27T15:07:03.872Z,74.30
2018-07-27T15:09:32.121Z,75.70
2018-07-27T15:12:00.741Z,76.50
2018-07-27T15:14:29.370Z,76.40
2018-07-27T15:16:57.940Z,77.70
2018-07-27T15:19:29.866Z,78.50
2018-07-27T15:21:58.130Z,78.30
2018-07-27T15:24:28.581Z,78.50
2018-07-27T15:26:57.218Z,79.70
2018-07-27T15:29:25.790Z,80.70
2018-07-27T15:31:54.860Z,81.40
2018-07-27T15:34:23.172Z,81.40
2018-07-27T15:36:53.139Z,81.40
2018-07-27T15:39:21.750Z,82.10
2018-07-27T15:41:49.970Z,81.20
2018-07-27T15:44:18.193Z,81.80
2018-07-27T15:46:47.157Z,84.10
2018-07-27T15:49:16.243Z,85.20
2018-07-27T15:51:45.177Z,86.50
2018-07-27T15:54:13.448Z,88.40
2018-07-27T15:56:42.041Z,89.20
2018-07-27T15:59:10.268Z,89.90
2018-07-27T16:01:38.853Z,90.00
2018-07-27T16:04:07.093Z,90.00
2018-07-27T16:06:35.644Z,89.70
2018-07-27T16:09:06.647Z,89.40
2018-07-27T16:11:35.242Z,90.00
2018-07-27T16:14:04.273Z,90.00
2018-07-27T16:16:32.661Z,89.30
2018-07-27T16:19:00.892Z,88.60
2018-07-27T16:21:29.785Z,89.00
2018-07-27T16:23:58.021Z,90.60
2018-07-27T16:26:26.297Z,90.80
2018-07-27T16:28:54.851Z,91.20
2018-07-27T16:31:23.134Z,91.40
2018-07-27T16:33:52.076Z,91.50
2018-07-27T16:36:20.988Z,91.50
2018-07-27T16:38:49.235Z,91.30
2018-07-27T16:41:17.474Z,91.00
2018-07-27T16:43:46.608Z,90.50
2018-07-27T16:46:15.505Z,90.60
2018-07-27T16:48:43.727Z,90.80
2018-07-27T16:51:13.011Z,90.50
2018-07-27T16:53:42.596Z,91.10
2018-07-27T16:56:11.173Z,91.90
2018-07-27T16:58:39.446Z,91.90
2018-07-27T17:01:08.370Z,92.00
2018-07-27T17:03:36.600Z,91.90
2018-07-27T17:06:05.216Z,91.80
2018-07-27T17:08:33.600Z,92.10
2018-07-27T17:11:01.826Z,92.60
2018-07-27T17:13:30.431Z,92.70
2018-07-27T17:15:59.215Z,92.80
2018-07-27T17:18:28.246Z,93.10
2018-07-27T17:23:24.839Z,93.60
2018-07-27T17:25:53.119Z,93.80
2018-07-27T17:28:21.576Z,93.70
2018-07-27T17:30:50.984Z,93.90
2018-07-27T17:33:19.258Z,94.20
2018-07-27T17:35:47.705Z,94.30
2018-07-27T17:38:16.295Z,94.20
2018-07-27T17:40:44.905Z,94.20
2018-07-27T17:43:13.822Z,94.40
2018-07-27T17:45:42.397Z,94.40
2018-07-27T17:48:10.941Z,94.30
2018-07-27T17:50:40.188Z,94.20
2018-07-27T17:53:08.436Z,94.20
2018-07-27T17:55:36.657Z,94.10
2018-07-27T17:58:05.023Z,94.20
2018-07-27T18:00:34.944Z,94.40
2018-07-27T18:03:03.862Z,94.80
2018-07-27T18:05:32.757Z,94.90
2018-07-27T18:08:01.384Z,95.80
2018-07-27T18:10:29.781Z,96.60
2018-07-27T18:12:58.035Z,97.00
2018-07-27T18:15:26.609Z,97.50
2018-07-27T18:17:54.846Z,97.70
2018-07-27T18:20:23.096Z,98.00
2018-07-27T18:22:51.453Z,98.30
2018-07-27T18:25:19.688Z,98.50
2018-07-27T18:27:48.838Z,98.90
2018-07-27T18:30:17.465Z,98.90
2018-07-27T18:32:45.945Z,99.00
2018-07-27T18:35:14.234Z,99.10
2018-07-27T18:37:42.480Z,99.20
2018-07-27T18:40:11.036Z,99.60
2018-07-27T18:42:39.405Z,99.90
2018-07-27T18:45:08.254Z,99.90
2018-07-27T18:47:36.928Z,99.90
2018-07-27T18:50:05.784Z,99.90
2018-07-27T18:52:34.021Z,99.90
2018-07-27T18:55:02.659Z,99.90
2018-07-27T18:57:31.352Z,99.90
2018-07-27T18:59:59.584Z,99.90
2018-07-27T19:02:28.169Z,99.90
2018-07-27T19:04:56.413Z,99.90
2018-07-27T19:07:25.283Z,99.90
2018-07-27T19:09:53.528Z,99.90
2018-07-27T19:12:21.745Z,99.90
2018-07-27T19:14:49.949Z,99.90
2018-07-27T19:17:20.017Z,99.90
2018-07-27T19:19:48.577Z,99.90
2018-07-27T19:22:17.155Z,99.90
2018-07-27T19:24:45.694Z,99.90
2018-07-27T19:27:13.949Z,99.90
2018-07-27T19:29:42.224Z,99.90
2018-07-27T19:32:10.442Z,99.90
2018-07-27T19:34:38.673Z,99.90
2018-07-27T19:37:07.873Z,99.90
2018-07-27T19:39:36.089Z,99.90
2018-07-27T19:42:04.334Z,99.90
2018-07-27T19:44:34.033Z,99.90
2018-07-27T19:47:02.585Z,99.90
2018-07-27T19:49:30.822Z,99.90
2018-07-27T19:51:59.067Z,99.90
2018-07-27T19:54:27.404Z,99.90
2018-07-27T19:56:56.141Z,99.90
2018-07-27T19:59:24.768Z,99.90
2018-07-27T20:01:53.009Z,99.90
2018-07-27T20:04:21.287Z,99.90
2018-07-27T20:06:49.874Z,99.90
2018-07-27T20:09:18.473Z,99.90
2018-07-27T20:11:47.055Z,99.90
2018-07-27T20:14:15.292Z,99.80
2018-07-27T20:16:43.858Z,99.80
2018-07-27T20:19:12.113Z,99.90
2018-07-27T20:21:40.472Z,99.80
2018-07-27T20:24:09.398Z,99.90
2018-07-27T20:26:38.021Z,99.90
2018-07-27T20:29:06.584Z,99.90
2018-07-27T20:31:35.213Z,99.90
2018-07-27T20:34:04.097Z,99.90
2018-07-27T20:36:32.677Z,99.90
2018-07-27T20:39:01.546Z,99.90
2018-07-27T20:41:30.114Z,99.90
2018-07-27T20:43:58.374Z,99.90
2018-07-27T20:46:26.773Z,99.90
2018-07-27T20:48:54.994Z,99.80
2018-07-27T20:51:23.231Z,99.90
2018-07-27T20:53:52.201Z,99.70
2018-07-27T20:56:20.460Z,99.80
2018-07-27T20:58:49.001Z,99.80
2018-07-27T21:01:17.550Z,99.90
2018-07-27T21:03:46.141Z,99.90
2018-07-27T21:06:14.361Z,99.90
2018-07-27T21:08:42.969Z,99.90
2018-07-27T21:12:35.799Z,99.90
2018-07-27T21:15:04.384Z,99.90
2018-07-27T21:17:32.947Z,99.90
2018-07-27T21:20:01.181Z,99.90
2018-07-27T21:22:29.754Z,99.90
2018-07-27T21:25:00.299Z,99.90
2018-07-27T21:27:29.278Z,99.90
2018-07-27T21:29:58.273Z,99.90
2018-07-27T21:32:28.557Z,99.80
2018-07-27T21:34:56.822Z,99.80
2018-07-27T21:37:25.289Z,99.90
2018-07-27T21:39:54.541Z,99.90
2018-07-27T21:42:23.494Z,99.90
2018-07-27T21:44:51.842Z,99.80
2018-07-27T21:47:21.262Z,99.90
2018-07-27T21:49:50.150Z,99.90
2018-07-27T21:52:19.093Z,99.90
2018-07-27T21:54:48.366Z,99.90
2018-07-27T21:57:17.416Z,99.90
2018-07-27T21:59:46.058Z,99.90
2018-07-27T22:04:44.505Z,99.90
2018-07-27T22:07:12.799Z,99.90
2018-07-27T22:09:41.113Z,99.90
2018-07-27T22:14:37.505Z,99.90
2018-07-27T22:17:06.305Z,99.90
2018-07-27T22:19:34.580Z,99.90
2018-07-27T22:22:03.501Z,99.90
2018-07-27T22:24:31.792Z,99.90
2018-07-27T22:27:00.399Z,99.90
2018-07-27T22:29:29.281Z,99.90
2018-07-27T22:31:57.523Z,99.90
2018-07-27T22:34:26.098Z,99.90
2018-07-27T22:36:54.365Z,99.90
2018-07-27T22:39:22.996Z,99.90
2018-07-27T22:41:51.553Z,99.90
2018-07-27T22:44:19.800Z,99.90
2018-07-27T22:46:48.382Z,99.90
2018-07-27T22:49:16.606Z,99.90
2018-07-27T22:51:44.829Z,99.90
2018-07-27T22:54:13.037Z,99.90
2018-07-27T22:56:41.273Z,99.90
2018-07-27T22:59:09.525Z,99.90
2018-07-27T23:01:38.101Z,99.90
2018-07-27T23:04:07.325Z,99.90
2018-07-27T23:06:35.572Z,99.90
2018-07-27T23:09:06.160Z,99.90
2018-07-27T23:11:34.384Z,99.90
2018-07-27T23:14:03.277Z,99.90
2018-07-27T23:16:32.727Z,99.90
2018-07-27T23:19:01.283Z,99.90
2018-07-27T23:21:30.352Z,99.90
2018-07-27T23:23:58.965Z,99.90
2018-07-27T23:26:27.217Z,99.90
2018-07-27T23:28:55.424Z,99.90
2018-07-27T23:31:23.989Z,99.90
2018-07-27T23:33:52.553Z,99.90
2018-07-27T23:36:20.755Z,99.90
2018-07-27T23:38:49.607Z,99.90
2018-07-27T23:41:22.893Z,99.90
2018-07-27T23:43:51.477Z,99.90
2018-07-27T23:46:21.604Z,99.90
2018-07-27T23:48:49.867Z,99.90
2018-07-27T23:51:18.421Z,99.90
2018-07-27T23:53:47.316Z,99.90
2018-07-27T23:56:15.553Z,99.90
2018-07-27T23:58:44.088Z,99.90
